Main page
METAR-TAF:

METAR-TAF

Airports :

Southampton, England

Southampton Airport

latitude: 50-54N, longitude: 001-24W, elevation: 9 m

Current weather observation

The report was made 17 minutes ago, at 21:20 UTC
Wind 11 kt from the Southwest
Temperature 10°C
Humidity 93%
Pressure 1015 hPa
Visibility 10 km or more
Few clouds at a height of 1200 ft
Broken clouds at a height of 1600 ft

METAR: EGHI 232120Z 22011KT 9999 FEW012 BKN016 10/09 Q1015

Time: 21:37 (21:37 UTC)

Forecast

The report was made 1 hour and 33 minutes ago, at 20:04 UTC
Forecast valid from 23 at 21 UTC to 23 at 23 UTC
Wind 15 kt from the Southwest
Visibility 10 km or more
Scattered clouds at a height of 2500 ft
Probability 30% :
Temporary
from 23 at 21 UTC to 23 at 23 UTC
Wind 18 kt from the West/Southwest with gusts up to 28 kt
Broken clouds at a height of 1200 ft

TAF: EGHI 232004Z 2321/2323 23015KT 9999 SCT025 PROB30 TEMPO 2321/2323 25018G28KT BKN012

Weather observations and forecasts of more than 4000 airports (METAR and TAF reports).

The available stations are represented by yellow and red dots on the map.

Hover mouse over dot to see the name of the station.

Then click to see weather observations and forecasts.

To change the map : click on the green buttons with a black cross to zoom in, on the green button with a dash to zoom out, or on the green arrows for adjacent maps.


METAR-TAF: